NKS2403 KFLL-KATL
Flight info
| Callsign | NKS2403 |
|---|---|
| Flight time | 1h 27m |
| Altitude | 38000 |
| Route | FRSBE2 STYMY Q77 MJAMS/N0438F370 Q77 SHRKS/N0444F380 DCT LAIRI DCT LARZZ JJEDI4 |
| Aircraft | A320/M-SDE3FGHIRWY/LB1 |
Departure
| Time | 2026-05-03 23:03 |
|---|---|
| Airport | Fort Lauderdale Hollywood International Airport (KFLL) |
Arrival
| Time | 2026-05-04 00:31 |
|---|---|
| Airport | Hartsfield Jackson Atlanta International Airport (KATL) |
| Time | Latitude | Longitude | Altitude | Speed | Heading |
|---|---|---|---|---|---|
| 2026-05-03 22:10 | 26.07287 | -80.14695 | 22 ft | 0 kts | 45° |
| 2026-05-03 22:34 | 26.07273 | -80.14710 | 23 ft | 4 kts | 44° |
| 2026-05-03 22:35 | 26.07265 | -80.14719 | 22 ft | 0 kts | 47° |
| 2026-05-03 22:35 | 26.07252 | -80.14727 | 21 ft | 2 kts | 2° |
| 2026-05-03 22:35 | 26.07235 | -80.14726 | 21 ft | 3 kts | 347° |
| 2026-05-03 22:35 | 26.07218 | -80.14721 | 21 ft | 3 kts | 310° |
| 2026-05-03 22:36 | 26.07214 | -80.14715 | 21 ft | 0 kts | 288° |
| 2026-05-03 22:39 | 26.07214 | -80.14716 | 21 ft | 0 kts | 287° |
| 2026-05-03 22:39 | 26.07212 | -80.14732 | 21 ft | 5 kts | 261° |
| 2026-05-03 22:40 | 26.07189 | -80.14782 | 24 ft | 8 kts | 227° |
| 2026-05-03 22:40 | 26.07148 | -80.14825 | 21 ft | 10 kts | 238° |
| 2026-05-03 22:40 | 26.07134 | -80.14900 | 21 ft | 11 kts | 294° |
| 2026-05-03 22:40 | 26.07165 | -80.14980 | 21 ft | 12 kts | 257° |
| 2026-05-03 22:41 | 26.07110 | -80.15056 | 22 ft | 13 kts | 223° |
| 2026-05-03 22:41 | 26.07037 | -80.15120 | 24 ft | 14 kts | 202° |
| 2026-05-03 22:41 | 26.06938 | -80.15129 | 24 ft | 15 kts | 181° |
| 2026-05-03 22:41 | 26.06821 | -80.15131 | 23 ft | 18 kts | 180° |
| 2026-05-03 22:42 | 26.06705 | -80.15158 | 27 ft | 16 kts | 248° |
| 2026-05-03 22:42 | 26.06697 | -80.15277 | 26 ft | 14 kts | 270° |
| 2026-05-03 22:42 | 26.06697 | -80.15300 | 26 ft | 0 kts | 270° |
| 2026-05-03 22:43 | 26.06697 | -80.15329 | 26 ft | 7 kts | 270° |
| 2026-05-03 22:43 | 26.06697 | -80.15360 | 26 ft | 0 kts | 270° |
| 2026-05-03 22:43 | 26.06697 | -80.15361 | 26 ft | 1 kts | 270° |
| 2026-05-03 22:44 | 26.06697 | -80.15386 | 26 ft | 6 kts | 271° |
| 2026-05-03 22:44 | 26.06697 | -80.15395 | 26 ft | 0 kts | 271° |
| 2026-05-03 22:44 | 26.06697 | -80.15402 | 26 ft | 3 kts | 271° |
| 2026-05-03 22:44 | 26.06698 | -80.15413 | 31 ft | 4 kts | 271° |
| 2026-05-03 22:45 | 26.06698 | -80.15459 | 26 ft | 0 kts | 270° |
| 2026-05-03 22:46 | 26.06698 | -80.15504 | 25 ft | 11 kts | 270° |
| 2026-05-03 22:46 | 26.06698 | -80.15522 | 25 ft | 1 kts | 270° |
| 2026-05-03 22:46 | 26.06698 | -80.15534 | 25 ft | 0 kts | 270° |
| 2026-05-03 22:47 | 26.06698 | -80.15535 | 25 ft | 0 kts | 270° |
| 2026-05-03 22:50 | 26.06698 | -80.15546 | 24 ft | 3 kts | 270° |
| 2026-05-03 22:51 | 26.06699 | -80.15581 | 24 ft | 0 kts | 271° |
| 2026-05-03 22:51 | 26.06699 | -80.15584 | 24 ft | 0 kts | 270° |
| 2026-05-03 22:52 | 26.06699 | -80.15600 | 24 ft | 4 kts | 270° |
| 2026-05-03 22:52 | 26.06699 | -80.15636 | 24 ft | 0 kts | 270° |
| 2026-05-03 22:54 | 26.06699 | -80.15643 | 23 ft | 2 kts | 270° |
| 2026-05-03 22:54 | 26.06699 | -80.15673 | 23 ft | 5 kts | 270° |
| 2026-05-03 22:54 | 26.06699 | -80.15679 | 23 ft | 0 kts | 270° |
| 2026-05-03 22:55 | 26.06699 | -80.15681 | 23 ft | 0 kts | 270° |
| 2026-05-03 22:56 | 26.06699 | -80.15694 | 26 ft | 3 kts | 270° |
| 2026-05-03 22:56 | 26.06698 | -80.15725 | 23 ft | 0 kts | 270° |
| 2026-05-03 22:56 | 26.06698 | -80.15733 | 23 ft | 0 kts | 270° |
| 2026-05-03 22:57 | 26.06698 | -80.15734 | 23 ft | 1 kts | 270° |
| 2026-05-03 22:57 | 26.06698 | -80.15736 | 23 ft | 0 kts | 270° |
| 2026-05-03 22:58 | 26.06698 | -80.15751 | 23 ft | 3 kts | 269° |
| 2026-05-03 22:58 | 26.06696 | -80.15785 | 22 ft | 2 kts | 256° |
| 2026-05-03 22:58 | 26.06682 | -80.15809 | 23 ft | 6 kts | 227° |
| 2026-05-03 22:58 | 26.06673 | -80.15816 | 22 ft | 0 kts | 211° |
| 2026-05-03 23:01 | 26.06665 | -80.15820 | 23 ft | 4 kts | 201° |
| 2026-05-03 23:01 | 26.06608 | -80.15816 | 24 ft | 11 kts | 154° |
| 2026-05-03 23:01 | 26.06588 | -80.15752 | 21 ft | 0 kts | 91° |
| 2026-05-03 23:02 | 26.06588 | -80.15748 | 22 ft | 5 kts | 91° |
| 2026-05-03 23:02 | 26.06586 | -80.15420 | 24 ft | 80 kts | 90° |
| 2026-05-03 23:02 | 26.06583 | -80.14560 | 19 ft | 138 kts | 90° |
| 2026-05-03 23:03 | 26.06617 | -80.13351 | 231 ft | 166 kts | 86° |
| 2026-05-03 23:03 | 26.06628 | -80.12038 | 821 ft | 173 kts | 88° |
| 2026-05-03 23:03 | 26.06784 | -80.10657 | 1268 ft | 191 kts | 64° |
| 2026-05-03 23:03 | 26.07547 | -80.09349 | 1755 ft | 214 kts | 53° |
| 2026-05-03 23:04 | 26.08443 | -80.07913 | 2245 ft | 238 kts | 49° |
| 2026-05-03 23:04 | 26.09813 | -80.06788 | 2706 ft | 257 kts | 20° |
| 2026-05-03 23:04 | 26.11531 | -80.06099 | 3454 ft | 267 kts | 18° |
| 2026-05-03 23:04 | 26.13306 | -80.05400 | 4333 ft | 274 kts | 17° |
| 2026-05-03 23:05 | 26.15169 | -80.04850 | 4829 ft | 278 kts | 360° |
| 2026-05-03 23:05 | 26.17043 | -80.05159 | 4978 ft | 272 kts | 338° |
| 2026-05-03 23:05 | 26.18831 | -80.05862 | 5014 ft | 272 kts | 336° |
| 2026-05-03 23:05 | 26.20571 | -80.06656 | 5020 ft | 269 kts | 327° |
| 2026-05-03 23:06 | 26.22045 | -80.07902 | 5021 ft | 265 kts | 311° |
| 2026-05-03 23:06 | 26.23142 | -80.09539 | 5018 ft | 264 kts | 296° |
| 2026-05-03 23:06 | 26.23859 | -80.11411 | 5019 ft | 264 kts | 290° |
| 2026-05-03 23:06 | 26.24531 | -80.13312 | 5021 ft | 264 kts | 290° |
| 2026-05-03 23:07 | 26.25210 | -80.15223 | 5293 ft | 267 kts | 291° |
| 2026-05-03 23:07 | 26.26103 | -80.17042 | 6300 ft | 269 kts | 300° |
| 2026-05-03 23:07 | 26.27108 | -80.18798 | 7208 ft | 270 kts | 300° |
| 2026-05-03 23:07 | 26.28119 | -80.20572 | 8077 ft | 272 kts | 300° |
| 2026-05-03 23:08 | 26.29125 | -80.22340 | 8949 ft | 274 kts | 299° |
| 2026-05-03 23:08 | 26.30147 | -80.24139 | 9826 ft | 276 kts | 299° |
| 2026-05-03 23:08 | 26.31180 | -80.25960 | 10614 ft | 279 kts | 298° |
| 2026-05-03 23:08 | 26.32220 | -80.27798 | 11283 ft | 287 kts | 298° |
| 2026-05-03 23:09 | 26.33326 | -80.29762 | 11530 ft | 310 kts | 298° |
| 2026-05-03 23:09 | 26.34495 | -80.31834 | 12058 ft | 321 kts | 299° |
| 2026-05-03 23:09 | 26.35695 | -80.33953 | 12776 ft | 325 kts | 298° |
| 2026-05-03 23:09 | 26.36911 | -80.36093 | 13513 ft | 328 kts | 298° |
| 2026-05-03 23:10 | 26.38139 | -80.38251 | 14185 ft | 331 kts | 298° |
| 2026-05-03 23:10 | 26.39376 | -80.40429 | 14802 ft | 334 kts | 298° |
| 2026-05-03 23:10 | 26.40619 | -80.42622 | 15414 ft | 336 kts | 298° |
| 2026-05-03 23:10 | 26.41871 | -80.44836 | 16027 ft | 338 kts | 298° |
| 2026-05-03 23:11 | 26.43130 | -80.47065 | 16642 ft | 341 kts | 297° |
| 2026-05-03 23:11 | 26.44400 | -80.49312 | 17245 ft | 344 kts | 297° |
| 2026-05-03 23:11 | 26.45681 | -80.51578 | 17854 ft | 346 kts | 297° |
| 2026-05-03 23:11 | 26.47073 | -80.53798 | 18430 ft | 354 kts | 305° |
| 2026-05-03 23:12 | 26.48886 | -80.55706 | 18951 ft | 364 kts | 316° |
| 2026-05-03 23:12 | 26.51092 | -80.57174 | 19464 ft | 377 kts | 329° |
| 2026-05-03 23:12 | 26.53613 | -80.58121 | 19987 ft | 387 kts | 337° |
| 2026-05-03 23:12 | 26.56222 | -80.58940 | 20507 ft | 391 kts | 336° |
| 2026-05-03 23:13 | 26.58848 | -80.59768 | 20991 ft | 394 kts | 336° |
| 2026-05-03 23:13 | 26.61500 | -80.60609 | 21462 ft | 398 kts | 336° |
| 2026-05-03 23:13 | 26.64174 | -80.61458 | 21967 ft | 401 kts | 336° |
| 2026-05-03 23:13 | 26.66869 | -80.62316 | 22458 ft | 404 kts | 336° |
| 2026-05-03 23:14 | 26.69585 | -80.63182 | 22930 ft | 408 kts | 335° |
| 2026-05-03 23:14 | 26.72319 | -80.64054 | 23404 ft | 411 kts | 335° |
| 2026-05-03 23:14 | 26.75086 | -80.64937 | 23815 ft | 415 kts | 335° |
| 2026-05-03 23:14 | 26.77870 | -80.65824 | 24200 ft | 417 kts | 335° |
| 2026-05-03 23:15 | 26.80669 | -80.66716 | 24600 ft | 419 kts | 335° |
| 2026-05-03 23:15 | 26.83485 | -80.67615 | 24998 ft | 422 kts | 335° |
| 2026-05-03 23:15 | 26.86278 | -80.68504 | 25382 ft | 424 kts | 335° |
| 2026-05-03 23:15 | 26.89125 | -80.69409 | 25818 ft | 426 kts | 335° |
| 2026-05-03 23:16 | 26.91984 | -80.70329 | 26226 ft | 428 kts | 334° |
| 2026-05-03 23:16 | 26.94828 | -80.71325 | 26629 ft | 428 kts | 333° |
| 2026-05-03 23:16 | 26.97652 | -80.72389 | 27018 ft | 430 kts | 332° |
| 2026-05-03 23:16 | 27.00483 | -80.73493 | 27400 ft | 432 kts | 331° |
| 2026-05-03 23:17 | 27.03325 | -80.74611 | 27781 ft | 434 kts | 331° |
| 2026-05-03 23:17 | 27.06186 | -80.75729 | 28177 ft | 437 kts | 332° |
| 2026-05-03 23:17 | 27.09069 | -80.76841 | 28552 ft | 439 kts | 332° |
| 2026-05-03 23:17 | 27.11973 | -80.77948 | 28917 ft | 442 kts | 332° |
| 2026-05-03 23:18 | 27.14895 | -80.79055 | 29299 ft | 445 kts | 332° |
| 2026-05-03 23:18 | 27.17837 | -80.80165 | 29716 ft | 447 kts | 332° |
| 2026-05-03 23:18 | 27.20797 | -80.81283 | 30072 ft | 450 kts | 332° |
| 2026-05-03 23:18 | 27.23775 | -80.82413 | 30394 ft | 453 kts | 332° |
| 2026-05-03 23:19 | 27.26773 | -80.83542 | 30694 ft | 456 kts | 332° |
| 2026-05-03 23:19 | 27.29786 | -80.84675 | 31008 ft | 457 kts | 331° |
| 2026-05-03 23:19 | 27.32795 | -80.85838 | 31398 ft | 456 kts | 330° |
| 2026-05-03 23:19 | 27.35781 | -80.87029 | 31849 ft | 454 kts | 329° |
| 2026-05-03 23:20 | 27.38745 | -80.88240 | 32313 ft | 452 kts | 329° |
| 2026-05-03 23:20 | 27.41694 | -80.89461 | 32775 ft | 451 kts | 328° |
| 2026-05-03 23:20 | 27.44633 | -80.90685 | 33248 ft | 450 kts | 328° |
| 2026-05-03 23:20 | 27.47563 | -80.91906 | 33725 ft | 448 kts | 327° |
| 2026-05-03 23:21 | 27.50485 | -80.93122 | 34187 ft | 447 kts | 327° |
| 2026-05-03 23:21 | 27.53400 | -80.94332 | 34574 ft | 446 kts | 327° |
| 2026-05-03 23:21 | 27.56302 | -80.95532 | 34950 ft | 445 kts | 327° |
| 2026-05-03 23:21 | 27.59206 | -80.96730 | 35305 ft | 444 kts | 327° |
| 2026-05-03 23:22 | 27.65004 | -80.99116 | 36009 ft | 442 kts | 327° |
| 2026-05-03 23:22 | 27.67886 | -81.00302 | 36332 ft | 441 kts | 327° |
| 2026-05-03 23:22 | 27.70772 | -81.01490 | 36675 ft | 440 kts | 327° |
| 2026-05-03 23:23 | 27.73639 | -81.02675 | 36998 ft | 439 kts | 326° |
| 2026-05-03 23:23 | 27.76505 | -81.03863 | 37329 ft | 438 kts | 326° |
| 2026-05-03 23:23 | 27.79361 | -81.05050 | 37697 ft | 437 kts | 326° |
| 2026-05-03 23:23 | 27.82175 | -81.06220 | 37992 ft | 437 kts | 326° |
| 2026-05-03 23:24 | 27.87880 | -81.08605 | 38069 ft | 436 kts | 325° |
| 2026-05-03 23:24 | 27.93463 | -81.11188 | 38078 ft | 432 kts | 323° |
| 2026-05-03 23:25 | 27.98955 | -81.13889 | 37679 ft | 430 kts | 322° |
| 2026-05-03 23:25 | 28.01701 | -81.15240 | 37196 ft | 429 kts | 323° |
| 2026-05-03 23:25 | 28.04434 | -81.16572 | 37050 ft | 428 kts | 323° |
| 2026-05-03 23:26 | 28.09956 | -81.19240 | 37122 ft | 434 kts | 323° |
| 2026-05-03 23:26 | 28.15529 | -81.21902 | 37097 ft | 435 kts | 323° |
| 2026-05-03 23:27 | 28.21105 | -81.24571 | 37098 ft | 435 kts | 323° |
| 2026-05-03 23:27 | 28.26673 | -81.27249 | 37099 ft | 435 kts | 323° |
| 2026-05-03 23:28 | 28.32241 | -81.29937 | 37090 ft | 435 kts | 323° |
| 2026-05-03 23:28 | 28.37788 | -81.32652 | 37091 ft | 433 kts | 322° |
| 2026-05-03 23:29 | 28.43270 | -81.35474 | 37090 ft | 432 kts | 321° |
| 2026-05-03 23:29 | 28.48708 | -81.38294 | 37101 ft | 433 kts | 321° |
| 2026-05-03 23:30 | 28.54191 | -81.41115 | 37098 ft | 433 kts | 321° |
| 2026-05-03 23:30 | 28.59687 | -81.43930 | 37099 ft | 433 kts | 321° |
| 2026-05-03 23:31 | 28.65183 | -81.46742 | 37099 ft | 433 kts | 321° |
| 2026-05-03 23:31 | 28.70674 | -81.49562 | 37125 ft | 434 kts | 321° |
| 2026-05-03 23:32 | 28.76169 | -81.52392 | 37098 ft | 434 kts | 321° |
| 2026-05-03 23:32 | 28.81661 | -81.55220 | 36595 ft | 432 kts | 321° |
| 2026-05-03 23:33 | 28.84404 | -81.56632 | 36016 ft | 433 kts | 321° |
| 2026-05-03 23:33 | 28.87149 | -81.58052 | 35436 ft | 433 kts | 321° |
| 2026-05-03 23:33 | 28.89892 | -81.59464 | 35158 ft | 433 kts | 322° |
| 2026-05-03 23:33 | 28.92803 | -81.60615 | 35073 ft | 452 kts | 332° |
| 2026-05-03 23:34 | 28.95965 | -81.61243 | 35102 ft | 472 kts | 342° |
| 2026-05-03 23:34 | 28.99256 | -81.61543 | 35161 ft | 474 kts | 342° |
| 2026-05-03 23:34 | 29.05781 | -81.62121 | 35109 ft | 473 kts | 342° |
| 2026-05-03 23:35 | 29.12346 | -81.62715 | 35111 ft | 473 kts | 342° |
| 2026-05-03 23:35 | 29.18908 | -81.63316 | 35111 ft | 473 kts | 342° |
| 2026-05-03 23:36 | 29.25470 | -81.63917 | 35120 ft | 473 kts | 342° |
| 2026-05-03 23:36 | 29.32023 | -81.64519 | 35108 ft | 472 kts | 342° |
| 2026-05-03 23:37 | 29.37466 | -81.65016 | 35118 ft | 472 kts | 342° |
| 2026-05-03 23:37 | 29.43999 | -81.65616 | 35121 ft | 471 kts | 342° |
| 2026-05-03 23:38 | 29.50523 | -81.66217 | 35119 ft | 470 kts | 343° |
| 2026-05-03 23:38 | 29.57047 | -81.66817 | 35183 ft | 470 kts | 343° |
| 2026-05-03 23:39 | 29.63542 | -81.67416 | 35131 ft | 468 kts | 343° |
| 2026-05-03 23:39 | 29.70028 | -81.68023 | 35130 ft | 468 kts | 343° |
| 2026-05-03 23:40 | 29.76515 | -81.68625 | 35127 ft | 467 kts | 343° |
| 2026-05-03 23:40 | 29.82994 | -81.69231 | 35127 ft | 467 kts | 343° |
| 2026-05-03 23:41 | 29.89478 | -81.69830 | 35123 ft | 466 kts | 343° |
| 2026-05-03 23:41 | 29.95937 | -81.70426 | 35123 ft | 466 kts | 343° |
| 2026-05-03 23:42 | 30.02399 | -81.71029 | 35128 ft | 466 kts | 343° |
| 2026-05-03 23:42 | 30.08862 | -81.71625 | 35128 ft | 466 kts | 343° |
| 2026-05-03 23:43 | 30.15320 | -81.72226 | 35159 ft | 466 kts | 344° |
| 2026-05-03 23:43 | 30.21772 | -81.72841 | 35128 ft | 465 kts | 344° |
| 2026-05-03 23:44 | 30.28181 | -81.73443 | 35146 ft | 465 kts | 344° |
| 2026-05-03 23:44 | 30.34636 | -81.74044 | 35146 ft | 465 kts | 344° |
| 2026-05-03 23:45 | 30.41091 | -81.74646 | 35132 ft | 465 kts | 344° |
| 2026-05-03 23:45 | 30.47536 | -81.75248 | 35127 ft | 465 kts | 344° |
| 2026-05-03 23:46 | 30.53987 | -81.75855 | 35128 ft | 465 kts | 344° |
| 2026-05-03 23:46 | 30.60412 | -81.76559 | 35129 ft | 456 kts | 338° |
| 2026-05-03 23:47 | 30.63429 | -81.77467 | 35134 ft | 441 kts | 328° |
| 2026-05-03 23:47 | 30.66190 | -81.78870 | 35137 ft | 428 kts | 321° |
| 2026-05-03 23:47 | 30.71524 | -81.81984 | 35179 ft | 430 kts | 322° |
| 2026-05-03 23:48 | 30.76889 | -81.85073 | 35162 ft | 430 kts | 322° |
| 2026-05-03 23:48 | 30.82257 | -81.88166 | 35132 ft | 430 kts | 322° |
| 2026-05-03 23:49 | 30.84930 | -81.89712 | 34826 ft | 428 kts | 322° |
| 2026-05-03 23:49 | 30.87599 | -81.91262 | 34209 ft | 429 kts | 322° |
| 2026-05-03 23:49 | 30.90274 | -81.92818 | 33505 ft | 430 kts | 323° |
| 2026-05-03 23:49 | 30.92960 | -81.94379 | 32741 ft | 432 kts | 323° |
| 2026-05-03 23:50 | 30.95656 | -81.95945 | 32286 ft | 433 kts | 323° |
| 2026-05-03 23:50 | 30.98325 | -81.97500 | 32117 ft | 436 kts | 323° |
| 2026-05-03 23:50 | 31.03798 | -82.00693 | 32151 ft | 438 kts | 324° |
| 2026-05-03 23:51 | 31.09224 | -82.03854 | 32125 ft | 439 kts | 324° |
| 2026-05-03 23:51 | 31.14685 | -82.07042 | 32124 ft | 439 kts | 323° |
| 2026-05-03 23:52 | 31.20145 | -82.10235 | 32119 ft | 439 kts | 324° |
| 2026-05-03 23:52 | 31.25608 | -82.13426 | 32126 ft | 439 kts | 324° |
| 2026-05-03 23:53 | 31.31074 | -82.16632 | 32115 ft | 441 kts | 324° |
| 2026-05-03 23:53 | 31.36560 | -82.19863 | 32118 ft | 442 kts | 324° |
| 2026-05-03 23:54 | 31.42066 | -82.23093 | 32118 ft | 443 kts | 324° |
| 2026-05-03 23:54 | 31.47576 | -82.26324 | 32117 ft | 443 kts | 324° |
| 2026-05-03 23:55 | 31.53080 | -82.29565 | 32115 ft | 443 kts | 324° |
| 2026-05-03 23:55 | 31.58539 | -82.32769 | 32089 ft | 428 kts | 324° |
| 2026-05-03 23:56 | 31.61158 | -82.34296 | 31966 ft | 415 kts | 324° |
| 2026-05-03 23:56 | 31.63707 | -82.35788 | 31767 ft | 405 kts | 323° |
| 2026-05-03 23:56 | 31.66204 | -82.37265 | 31409 ft | 399 kts | 323° |
| 2026-05-03 23:56 | 31.68677 | -82.38738 | 31008 ft | 396 kts | 323° |
| 2026-05-03 23:57 | 31.71121 | -82.40195 | 30639 ft | 393 kts | 323° |
| 2026-05-03 23:57 | 31.73551 | -82.41645 | 30265 ft | 390 kts | 323° |
| 2026-05-03 23:57 | 31.75964 | -82.43081 | 29822 ft | 387 kts | 323° |
| 2026-05-03 23:57 | 31.78362 | -82.44505 | 29392 ft | 385 kts | 323° |
| 2026-05-03 23:58 | 31.80745 | -82.45919 | 28955 ft | 382 kts | 323° |
| 2026-05-03 23:58 | 31.83113 | -82.47321 | 28552 ft | 380 kts | 323° |
| 2026-05-03 23:58 | 31.85464 | -82.48717 | 28165 ft | 377 kts | 324° |
| 2026-05-03 23:58 | 31.87798 | -82.50104 | 27764 ft | 374 kts | 324° |
| 2026-05-03 23:59 | 31.90116 | -82.51481 | 27359 ft | 372 kts | 324° |
| 2026-05-03 23:59 | 31.92417 | -82.52850 | 26955 ft | 369 kts | 324° |
| 2026-05-03 23:59 | 31.94669 | -82.54199 | 26545 ft | 366 kts | 323° |
| 2026-05-03 23:59 | 31.96818 | -82.55785 | 26156 ft | 356 kts | 315° |
| 2026-05-04 00:00 | 31.98690 | -82.57580 | 25756 ft | 349 kts | 311° |
| 2026-05-04 00:00 | 32.00518 | -82.59454 | 25340 ft | 348 kts | 311° |
| 2026-05-04 00:00 | 32.02341 | -82.61308 | 25104 ft | 346 kts | 311° |
| 2026-05-04 00:00 | 32.04164 | -82.63163 | 25105 ft | 347 kts | 311° |
| 2026-05-04 00:01 | 32.05992 | -82.65028 | 25108 ft | 348 kts | 311° |
| 2026-05-04 00:01 | 32.07823 | -82.66897 | 25110 ft | 348 kts | 311° |
| 2026-05-04 00:01 | 32.09655 | -82.68768 | 25109 ft | 348 kts | 311° |
| 2026-05-04 00:01 | 32.11488 | -82.70636 | 25109 ft | 348 kts | 311° |
| 2026-05-04 00:02 | 32.13321 | -82.72506 | 25109 ft | 348 kts | 311° |
| 2026-05-04 00:02 | 32.15146 | -82.74374 | 25116 ft | 348 kts | 312° |
| 2026-05-04 00:02 | 32.16972 | -82.76246 | 25110 ft | 348 kts | 312° |
| 2026-05-04 00:02 | 32.18796 | -82.78118 | 25126 ft | 347 kts | 312° |
| 2026-05-04 00:03 | 32.20621 | -82.79990 | 25117 ft | 348 kts | 312° |
| 2026-05-04 00:03 | 32.22451 | -82.81866 | 25115 ft | 348 kts | 312° |
| 2026-05-04 00:03 | 32.24274 | -82.83732 | 25114 ft | 348 kts | 312° |
| 2026-05-04 00:03 | 32.26103 | -82.85602 | 25114 ft | 348 kts | 312° |
| 2026-05-04 00:04 | 32.27923 | -82.87467 | 24883 ft | 345 kts | 312° |
| 2026-05-04 00:04 | 32.29704 | -82.89295 | 24486 ft | 343 kts | 312° |
| 2026-05-04 00:04 | 32.31496 | -82.91138 | 24178 ft | 340 kts | 313° |
| 2026-05-04 00:04 | 32.33282 | -82.92976 | 24109 ft | 341 kts | 313° |
| 2026-05-04 00:05 | 32.35074 | -82.94822 | 24109 ft | 342 kts | 313° |
| 2026-05-04 00:05 | 32.36871 | -82.96673 | 24108 ft | 343 kts | 313° |
| 2026-05-04 00:05 | 32.38671 | -82.98523 | 24108 ft | 343 kts | 313° |
| 2026-05-04 00:05 | 32.40466 | -83.00367 | 24047 ft | 341 kts | 313° |
| 2026-05-04 00:06 | 32.42256 | -83.02203 | 23663 ft | 339 kts | 313° |
| 2026-05-04 00:06 | 32.44027 | -83.04022 | 23225 ft | 337 kts | 314° |
| 2026-05-04 00:06 | 32.45790 | -83.05835 | 22786 ft | 335 kts | 314° |
| 2026-05-04 00:06 | 32.47541 | -83.07638 | 22354 ft | 333 kts | 314° |
| 2026-05-04 00:07 | 32.49283 | -83.09429 | 21928 ft | 331 kts | 314° |
| 2026-05-04 00:07 | 32.51013 | -83.11212 | 21511 ft | 329 kts | 314° |
| 2026-05-04 00:07 | 32.52731 | -83.12988 | 21095 ft | 327 kts | 314° |
| 2026-05-04 00:07 | 32.54436 | -83.14755 | 20693 ft | 325 kts | 314° |
| 2026-05-04 00:08 | 32.56134 | -83.16511 | 20292 ft | 323 kts | 315° |
| 2026-05-04 00:08 | 32.57822 | -83.18257 | 20097 ft | 322 kts | 315° |
| 2026-05-04 00:08 | 32.59513 | -83.20005 | 20092 ft | 323 kts | 315° |
| 2026-05-04 00:08 | 32.61175 | -83.21725 | 19754 ft | 321 kts | 315° |
| 2026-05-04 00:09 | 32.62850 | -83.23461 | 19369 ft | 319 kts | 315° |
| 2026-05-04 00:09 | 32.64516 | -83.25190 | 18993 ft | 317 kts | 315° |
| 2026-05-04 00:09 | 32.66172 | -83.26915 | 18632 ft | 316 kts | 315° |
| 2026-05-04 00:09 | 32.67821 | -83.28630 | 18258 ft | 314 kts | 315° |
| 2026-05-04 00:10 | 32.69461 | -83.30337 | 17860 ft | 313 kts | 315° |
| 2026-05-04 00:10 | 32.71091 | -83.32037 | 17478 ft | 311 kts | 315° |
| 2026-05-04 00:10 | 32.72711 | -83.33727 | 17109 ft | 309 kts | 315° |
| 2026-05-04 00:10 | 32.74322 | -83.35408 | 16743 ft | 307 kts | 316° |
| 2026-05-04 00:11 | 32.75921 | -83.37074 | 16375 ft | 306 kts | 316° |
| 2026-05-04 00:11 | 32.77518 | -83.38733 | 16013 ft | 304 kts | 316° |
| 2026-05-04 00:11 | 32.79105 | -83.40387 | 15663 ft | 303 kts | 316° |
| 2026-05-04 00:11 | 32.80682 | -83.42034 | 15318 ft | 301 kts | 316° |
| 2026-05-04 00:12 | 32.82251 | -83.43674 | 14969 ft | 300 kts | 316° |
| 2026-05-04 00:12 | 32.83812 | -83.45306 | 14636 ft | 298 kts | 316° |
| 2026-05-04 00:12 | 32.85366 | -83.46929 | 14304 ft | 296 kts | 316° |
| 2026-05-04 00:12 | 32.86913 | -83.48542 | 13981 ft | 295 kts | 317° |
| 2026-05-04 00:13 | 32.88456 | -83.50152 | 13621 ft | 294 kts | 317° |
| 2026-05-04 00:13 | 32.89984 | -83.51749 | 13266 ft | 292 kts | 317° |
| 2026-05-04 00:13 | 32.91505 | -83.53342 | 12915 ft | 290 kts | 317° |
| 2026-05-04 00:13 | 32.93016 | -83.54925 | 12579 ft | 288 kts | 317° |
| 2026-05-04 00:14 | 32.94521 | -83.56502 | 12227 ft | 287 kts | 317° |
| 2026-05-04 00:14 | 32.96010 | -83.58066 | 11896 ft | 285 kts | 317° |
| 2026-05-04 00:14 | 32.97500 | -83.59625 | 11564 ft | 284 kts | 317° |
| 2026-05-04 00:14 | 32.98977 | -83.61167 | 11237 ft | 282 kts | 318° |
| 2026-05-04 00:15 | 33.00445 | -83.62703 | 11013 ft | 279 kts | 318° |
| 2026-05-04 00:15 | 33.01892 | -83.64217 | 10999 ft | 282 kts | 318° |
| 2026-05-04 00:15 | 33.03366 | -83.65762 | 11000 ft | 282 kts | 318° |
| 2026-05-04 00:15 | 33.04839 | -83.67310 | 11000 ft | 282 kts | 318° |
| 2026-05-04 00:16 | 33.06312 | -83.68858 | 11002 ft | 283 kts | 318° |
| 2026-05-04 00:16 | 33.07787 | -83.70408 | 11000 ft | 283 kts | 318° |
| 2026-05-04 00:16 | 33.09261 | -83.71957 | 11000 ft | 283 kts | 318° |
| 2026-05-04 00:16 | 33.10738 | -83.73509 | 11000 ft | 283 kts | 318° |
| 2026-05-04 00:17 | 33.12211 | -83.75060 | 11000 ft | 283 kts | 318° |
| 2026-05-04 00:17 | 33.13682 | -83.76611 | 11003 ft | 283 kts | 318° |
| 2026-05-04 00:17 | 33.15152 | -83.78157 | 10836 ft | 280 kts | 318° |
| 2026-05-04 00:17 | 33.16608 | -83.79694 | 10506 ft | 279 kts | 318° |
| 2026-05-04 00:18 | 33.18053 | -83.81223 | 10186 ft | 277 kts | 318° |
| 2026-05-04 00:18 | 33.19489 | -83.82756 | 9856 ft | 276 kts | 317° |
| 2026-05-04 00:18 | 33.20870 | -83.84339 | 9505 ft | 275 kts | 315° |
| 2026-05-04 00:18 | 33.22216 | -83.85950 | 9154 ft | 274 kts | 314° |
| 2026-05-04 00:19 | 33.23550 | -83.87564 | 8805 ft | 273 kts | 314° |
| 2026-05-04 00:19 | 33.24883 | -83.89178 | 8462 ft | 272 kts | 315° |
| 2026-05-04 00:19 | 33.26210 | -83.90781 | 8130 ft | 271 kts | 315° |
| 2026-05-04 00:19 | 33.27531 | -83.92370 | 7992 ft | 270 kts | 315° |
| 2026-05-04 00:20 | 33.28863 | -83.93964 | 8002 ft | 272 kts | 315° |
| 2026-05-04 00:20 | 33.30203 | -83.95564 | 8007 ft | 273 kts | 315° |
| 2026-05-04 00:20 | 33.31547 | -83.97169 | 8007 ft | 273 kts | 315° |
| 2026-05-04 00:20 | 33.32885 | -83.98769 | 8009 ft | 272 kts | 315° |
| 2026-05-04 00:21 | 33.34225 | -84.00374 | 8014 ft | 272 kts | 315° |
| 2026-05-04 00:21 | 33.35694 | -84.01794 | 8015 ft | 272 kts | 329° |
| 2026-05-04 00:21 | 33.37431 | -84.02690 | 8022 ft | 273 kts | 341° |
| 2026-05-04 00:21 | 33.39184 | -84.03542 | 7907 ft | 271 kts | 332° |
| 2026-05-04 00:22 | 33.40783 | -84.04647 | 7699 ft | 265 kts | 327° |
| 2026-05-04 00:22 | 33.42317 | -84.05847 | 7577 ft | 256 kts | 326° |
| 2026-05-04 00:22 | 33.43755 | -84.06994 | 7454 ft | 245 kts | 326° |
| 2026-05-04 00:22 | 33.45127 | -84.08072 | 7330 ft | 227 kts | 327° |
| 2026-05-04 00:23 | 33.46411 | -84.09059 | 7183 ft | 212 kts | 327° |
| 2026-05-04 00:23 | 33.47668 | -84.10008 | 6829 ft | 215 kts | 328° |
| 2026-05-04 00:23 | 33.48952 | -84.10967 | 6470 ft | 220 kts | 328° |
| 2026-05-04 00:23 | 33.50266 | -84.11937 | 6085 ft | 224 kts | 328° |
| 2026-05-04 00:24 | 33.51601 | -84.12923 | 5705 ft | 227 kts | 328° |
| 2026-05-04 00:24 | 33.52957 | -84.13920 | 5327 ft | 230 kts | 328° |
| 2026-05-04 00:24 | 33.54327 | -84.14923 | 4963 ft | 232 kts | 328° |
| 2026-05-04 00:24 | 33.55713 | -84.15937 | 4610 ft | 232 kts | 327° |
| 2026-05-04 00:25 | 33.57046 | -84.16916 | 4433 ft | 216 kts | 327° |
| 2026-05-04 00:25 | 33.58282 | -84.17822 | 4292 ft | 200 kts | 327° |
| 2026-05-04 00:25 | 33.59433 | -84.18667 | 4112 ft | 189 kts | 327° |
| 2026-05-04 00:25 | 33.60550 | -84.19488 | 3860 ft | 188 kts | 327° |
| 2026-05-04 00:26 | 33.61660 | -84.20303 | 3634 ft | 187 kts | 327° |
| 2026-05-04 00:26 | 33.62649 | -84.21345 | 3223 ft | 190 kts | 302° |
| 2026-05-04 00:26 | 33.63119 | -84.22705 | 3206 ft | 166 kts | 279° |
| 2026-05-04 00:26 | 33.63163 | -84.24037 | 3192 ft | 156 kts | 270° |
| 2026-05-04 00:27 | 33.63164 | -84.25287 | 3064 ft | 144 kts | 270° |
| 2026-05-04 00:27 | 33.63166 | -84.26480 | 2760 ft | 142 kts | 270° |
| 2026-05-04 00:27 | 33.63169 | -84.27643 | 2721 ft | 141 kts | 271° |
| 2026-05-04 00:27 | 33.63171 | -84.28816 | 2718 ft | 141 kts | 270° |
| 2026-05-04 00:28 | 33.63173 | -84.29996 | 2715 ft | 142 kts | 271° |
| 2026-05-04 00:28 | 33.63175 | -84.31168 | 2717 ft | 140 kts | 271° |
| 2026-05-04 00:28 | 33.63177 | -84.32328 | 2621 ft | 136 kts | 271° |
| 2026-05-04 00:28 | 33.63177 | -84.33453 | 2216 ft | 135 kts | 271° |
| 2026-05-04 00:29 | 33.63178 | -84.34585 | 1875 ft | 133 kts | 271° |
| 2026-05-04 00:29 | 33.63174 | -84.35744 | 1768 ft | 143 kts | 270° |
| 2026-05-04 00:29 | 33.63164 | -84.36916 | 1685 ft | 140 kts | 270° |
| 2026-05-04 00:29 | 33.63155 | -84.37690 | 1599 ft | 140 kts | 270° |
| 2026-05-04 00:30 | 33.63165 | -84.38854 | 1424 ft | 139 kts | 271° |
| 2026-05-04 00:30 | 33.63173 | -84.40007 | 1229 ft | 139 kts | 269° |
| 2026-05-04 00:30 | 33.63171 | -84.41162 | 1140 ft | 139 kts | 270° |
| 2026-05-04 00:30 | 33.63190 | -84.42317 | 1023 ft | 138 kts | 270° |
| 2026-05-04 00:31 | 33.63194 | -84.43136 | 1009 ft | 46 kts | 264° |
| 2026-05-04 00:31 | 33.63184 | -84.43411 | 1007 ft | 25 kts | 271° |
| 2026-05-04 00:31 | 33.63225 | -84.43616 | 1008 ft | 26 kts | 292° |